In Rescue
 
Open Full Screen Window  High Contrast Mode
Wind Gusting 19 knots
13
January 20, 2021 5:08 PM CST
Weather Information
Wind Direction
  260 °
Wind Speed
  13 kt (15 mph)
Wind Gust
  19 kt (22 mph)
Altimeter
29.60 in
Visibility
10 SM
Temperature
03° C
37° F
Dewpoint
-02° C
28° F
Humidity
70%
1hr Rain Fall
00.00 in.
24hr Rain Fall
00.00 in.
Sky Condition
Clear
VFR

METAR KGYL 202308Z AUTO 26013G19KT 10SM CLR 03/M02 A2960 RMK AO2 T00271025

FAA Disclaimer: The data displayed is for advisory purposes only and is not to be used for flight planning or operations.